Aviation Digital Data Service (ADDS)

Output produced by METARs form (0514 UTC 28 March 2015)
found at http://aviationweather.gov/adds/metars/
 
KPVD 272335Z 2800/2824 VRB03KT P6SM FEW015 OVC040 
     FM280300 00000KT P6SM OVC025 
     FM280500 VRB03KT 5SM BR OVC025 
     FM280800 01005KT 3SM -SHSN OVC020 
     FM280900 01006KT 3SM -SHRASN BR OVC020 
     FM281000 01007KT 2SM -SHSN BR OVC015 
     FM282300 35007KT P6SM OVC010